罗盘
风向 的 风向 350° 比利·畢曉普多倫多市機場 6/24
风: 4 kt, 2 beaufort

2 kt

3 kt
改变
0 2.000 4.000 6.000 8.000 10.000
FEW 4.500 ft
SCT 9.000 ft
METAR CYYZ 291100Z 35004KT 15SM FEW045 SCT090 09/06 A3048 RMK SC2AC1 AC TR SLP325

METAR 比利·畢曉普多倫多市機場 - CYTZ/YTZ

比利·畢曉普多倫多市機場是Toronto,加拿大中的中型机场。 该机场有2条跑道: 6/24 和 8/26. 该领域的国际民航组织标志是CYTZ 它的国际航空运输协会代码是YTZ.

这份报告是针对2022年9月29日 07:00, 当地时间在多倫多皮爾遜國際機場进行的。

机场观察

风向为350°,速度为4 kt。

可见度为15 mi。

有几云在4.500 ft的高度 和 疏云,零星散落的云朵在9.000 ft的高度。 没有观察到天花板。

温度为9 °C,阵风为7 °C。 露点为6 °C,相对湿度为82%。 海平面上的气压为30,48 inHg (QNH)。

白天

今天,太阳从07:13升起,在19:02降落。 这适用于比利·畢曉普多倫多市機場,世界夏令时可能有所不同。 当地时间与世界标准时间之间的时差为-4 小时。 夏令时目前正在进行中。

公司介绍

在这个机场,你可以找到飞行学校。 本场上唯一已知的公司是Island Air Flight School。

体会

到Vliegles.nl去找飞行课程,跳伞和其他飞行体验。 浏览页面,了解比利·畢曉普多倫多市機場附近所有可用的活动。 你也可以使用搜索功能来寻找你所在地附近的特定飞行课程、跳伞或其他飞行体验。

跑道

Id 标题 侧风 逆风 侧风 %
6/24 048°-228° 3 kt 2 kt 85 %
8/26 069°-249° 4 kt 98 %

逆风成分最大的方向会被突出显示,并用于横风计算。 这并不一定意味着这个方向在使用。

乌云

4.500 ft FEW 几云
9.000 ft SCT 疏云,零星散落的云朵

温度 & 天气

温度 9 °C
露点 6 °C
相对湿度 82%
风寒 7 °C
Kp-index 0 (0-9)

评论

SLP325海平面压力为30,49 inHg (30,49 inHg)
SC2AC1 AC TR

白天

日出
07:14 (2m)
中午
13:08
日落
19:03

小工具

你想在你的网站上有一个关于比利·畢曉普多倫多市機場的当前航空天气(METAR)的小部件吗?

</> 显示HTML代码

我们和第三方通过cookies跟踪您在我们网站上的上网行为。如果您继续,我们认为您同意我们的cookie政策。 了解更多